createdAt,value
2023-03-07T00:01:27.161Z,99212.78
2023-03-07T00:03:54.278Z,99212.84
2023-03-07T00:06:21.504Z,99203.38
2023-03-07T00:08:53.085Z,99213.50
2023-03-07T00:11:19.911Z,99207.50
2023-03-07T00:13:46.716Z,99209.47
2023-03-07T00:16:16.417Z,99203.19
2023-03-07T00:18:43.995Z,99192.72
2023-03-07T00:21:13.441Z,99197.16
2023-03-07T00:23:42.643Z,99189.97
2023-03-07T00:26:20.934Z,99192.78
2023-03-07T00:28:50.043Z,99189.59
2023-03-07T00:31:17.676Z,99186.16
2023-03-07T00:33:44.730Z,99177.50
2023-03-07T00:36:16.657Z,99173.47
2023-03-07T00:38:45.007Z,99165.94
2023-03-07T00:41:14.430Z,99166.22
2023-03-07T00:43:41.833Z,99173.28
2023-03-07T00:46:09.009Z,99155.97
2023-03-07T00:48:37.796Z,99149.81
2023-03-07T00:51:06.205Z,99144.31
2023-03-07T00:53:33.279Z,99141.06
2023-03-07T00:56:01.485Z,99127.38
2023-03-07T00:58:32.932Z,99122.63
2023-03-07T01:01:00.407Z,99113.16
2023-03-07T01:03:27.774Z,99109.94
2023-03-07T01:05:55.164Z,99115.16
2023-03-07T01:08:22.971Z,99110.94
2023-03-07T01:10:49.916Z,99101.22
2023-03-07T01:13:18.871Z,99093.81
2023-03-07T01:15:46.318Z,99098.47
2023-03-07T01:18:13.219Z,99095.25
2023-03-07T01:20:41.018Z,99082.94
2023-03-07T01:23:08.082Z,99084.78
2023-03-07T01:25:40.096Z,99071.16
2023-03-07T01:28:08.108Z,99063.38
2023-03-07T01:30:34.893Z,99058.56
2023-03-07T01:33:03.957Z,99046.63
2023-03-07T01:35:36.049Z,99038.75
2023-03-07T01:38:02.872Z,99034.41
2023-03-07T01:40:30.590Z,99034.41
2023-03-07T01:43:22.605Z,99027.56
2023-03-07T01:45:51.575Z,99026.34
2023-03-07T01:48:19.366Z,99015.06
2023-03-07T01:50:48.476Z,99021.19
2023-03-07T01:53:15.913Z,99015.53
2023-03-07T01:55:43.152Z,99013.06
2023-03-07T01:58:15.018Z,98994.69
2023-03-07T02:00:44.235Z,98999.75
2023-03-07T02:03:10.898Z,98991.88
2023-03-07T02:06:04.602Z,98986.47
2023-03-07T02:08:33.028Z,98965.03
2023-03-07T02:10:59.763Z,98961.50
2023-03-07T02:13:29.022Z,98947.47
2023-03-07T02:15:56.905Z,98936.19
2023-03-07T02:18:28.191Z,98935.41
2023-03-07T02:21:03.916Z,98923.78
2023-03-07T02:23:40.648Z,98935.66
2023-03-07T02:26:12.686Z,98941.56
2023-03-07T02:28:42.496Z,98924.19
2023-03-07T02:31:10.604Z,98922.41
2023-03-07T02:33:38.766Z,98922.66
2023-03-07T02:36:11.468Z,98905.13
2023-03-07T02:38:45.365Z,98902.88
2023-03-07T02:41:12.916Z,98890.44
2023-03-07T02:43:39.879Z,98886.91
2023-03-07T02:46:07.539Z,98891.13
2023-03-07T02:48:34.291Z,98875.84
2023-03-07T02:51:01.160Z,98882.59
2023-03-07T02:53:28.473Z,98865.81
2023-03-07T02:55:55.235Z,98856.53
2023-03-07T02:58:22.217Z,98853.69
2023-03-07T03:00:49.200Z,98848.59
2023-03-07T03:03:15.965Z,98846.53
2023-03-07T03:05:42.621Z,98831.84
2023-03-07T03:08:09.783Z,98828.00
2023-03-07T03:10:36.642Z,98822.00
2023-03-07T03:13:03.402Z,98810.41
2023-03-07T03:15:30.143Z,98809.44
2023-03-07T03:17:57.066Z,98801.69
2023-03-07T03:20:25.496Z,98789.22
2023-03-07T03:22:53.085Z,98792.75
2023-03-07T03:25:23.266Z,98786.44
2023-03-07T03:27:50.995Z,98771.34
2023-03-07T03:30:17.862Z,98764.47
2023-03-07T03:32:45.036Z,98755.75
2023-03-07T03:35:14.914Z,98750.59
2023-03-07T03:37:42.274Z,98743.28
2023-03-07T03:40:14.640Z,98750.88
2023-03-07T03:42:43.681Z,98734.34
2023-03-07T03:45:11.796Z,98739.47
2023-03-07T03:47:38.575Z,98734.84
2023-03-07T03:50:06.335Z,98720.75
2023-03-07T03:52:35.773Z,98720.66
2023-03-07T03:55:02.701Z,98715.94
2023-03-07T03:57:29.437Z,98707.34
2023-03-07T03:59:56.114Z,98698.50
2023-03-07T04:02:23.542Z,98700.19
2023-03-07T04:04:50.966Z,98689.13
2023-03-07T04:07:17.633Z,98690.06
2023-03-07T04:09:45.598Z,98677.81
2023-03-07T04:12:12.397Z,98663.81
2023-03-07T04:14:40.196Z,98664.63
2023-03-07T04:17:07.349Z,98652.81
2023-03-07T04:19:34.115Z,98650.13
2023-03-07T04:22:01.393Z,98651.03
2023-03-07T04:24:28.093Z,98649.00
2023-03-07T04:26:54.822Z,98636.41
2023-03-07T04:29:21.581Z,98628.66
2023-03-07T04:31:55.017Z,98640.28
2023-03-07T04:34:22.054Z,98632.00
2023-03-07T04:36:48.962Z,98628.69
2023-03-07T04:39:15.822Z,98624.13
2023-03-07T04:41:43.002Z,98622.09
2023-03-07T04:44:17.250Z,98610.03
2023-03-07T04:46:44.139Z,98607.56
2023-03-07T04:49:11.302Z,98601.78
2023-03-07T04:51:39.399Z,98595.25
2023-03-07T04:54:06.506Z,98595.72
2023-03-07T04:56:33.605Z,98586.38
2023-03-07T04:59:01.287Z,98582.16
2023-03-07T05:01:28.166Z,98581.25
2023-03-07T05:03:55.084Z,98564.09
2023-03-07T05:06:22.185Z,98570.09
2023-03-07T05:08:52.646Z,98549.25
2023-03-07T05:11:19.586Z,98565.44
2023-03-07T05:13:46.786Z,98553.63
2023-03-07T05:16:17.874Z,98558.03
2023-03-07T05:18:44.879Z,98536.53
2023-03-07T05:21:12.169Z,98553.81
2023-03-07T05:23:39.733Z,98540.00
2023-03-07T05:26:07.941Z,98543.47
2023-03-07T05:28:34.689Z,98530.56
2023-03-07T05:31:02.210Z,98523.09
2023-03-07T05:33:29.148Z,98517.84
2023-03-07T05:36:00.051Z,98559.94
2023-03-07T05:38:27.087Z,98533.19
2023-03-07T05:40:53.832Z,98516.72
2023-03-07T05:43:20.493Z,98531.41
2023-03-07T05:45:47.175Z,98514.56
2023-03-07T05:48:14.495Z,98517.09
2023-03-07T05:50:42.743Z,98523.84
2023-03-07T05:53:09.925Z,98501.84
2023-03-07T05:55:36.652Z,98525.34
2023-03-07T05:58:03.715Z,98507.19
2023-03-07T06:00:30.550Z,98524.75
2023-03-07T06:03:04.005Z,98511.50
2023-03-07T06:05:31.772Z,98546.34
2023-03-07T06:07:58.596Z,98508.97
2023-03-07T06:10:25.940Z,98523.91
2023-03-07T06:12:56.072Z,98516.34
2023-03-07T06:15:24.564Z,98536.69
2023-03-07T06:17:56.846Z,98503.34
2023-03-07T06:20:24.385Z,98522.16
2023-03-07T06:22:53.743Z,98504.56
2023-03-07T06:25:21.903Z,98511.28
2023-03-07T06:27:49.341Z,98501.59
2023-03-07T06:30:16.147Z,98497.47
2023-03-07T06:32:43.021Z,98503.09
2023-03-07T06:35:10.328Z,98514.38
2023-03-07T06:37:37.261Z,98509.34
2023-03-07T06:40:06.470Z,98504.41
2023-03-07T06:42:35.630Z,98483.94
2023-03-07T06:45:02.939Z,98508.69
2023-03-07T06:47:29.646Z,98520.84
2023-03-07T06:49:57.012Z,98500.75
2023-03-07T06:52:24.136Z,98508.53
2023-03-07T06:54:51.120Z,98509.44
2023-03-07T06:57:17.819Z,98529.84
2023-03-07T06:59:45.009Z,98528.03
2023-03-07T07:02:13.812Z,98515.25
2023-03-07T07:04:40.765Z,98513.09
2023-03-07T07:07:07.556Z,98503.34
2023-03-07T07:09:37.203Z,98521.63
2023-03-07T07:12:06.050Z,98518.91
2023-03-07T07:14:34.795Z,98519.72
2023-03-07T07:17:02.837Z,98502.63
2023-03-07T07:19:29.584Z,98518.50
2023-03-07T07:22:00.961Z,98516.75
2023-03-07T07:24:27.704Z,98496.53
2023-03-07T07:26:55.947Z,98490.25
2023-03-07T07:29:23.757Z,98506.44
2023-03-07T07:31:51.587Z,98499.25
2023-03-07T07:34:19.634Z,98516.91
2023-03-07T07:36:47.137Z,98473.47
2023-03-07T07:39:15.395Z,98469.00
2023-03-07T07:41:44.684Z,98490.88
2023-03-07T07:44:12.049Z,98476.09
2023-03-07T07:46:51.136Z,98503.06
2023-03-07T07:49:18.758Z,98471.50
2023-03-07T07:51:46.110Z,98483.16
2023-03-07T07:54:12.885Z,98479.16
2023-03-07T07:56:40.562Z,98487.84
2023-03-07T07:59:07.363Z,98475.72
2023-03-07T08:01:34.271Z,98467.44
2023-03-07T08:04:01.028Z,98502.81
2023-03-07T08:06:28.237Z,98511.50
2023-03-07T08:08:55.590Z,98482.97
2023-03-07T08:11:23.297Z,98500.09
2023-03-07T08:13:50.216Z,98480.50
2023-03-07T08:16:18.996Z,98499.69
2023-03-07T08:18:51.300Z,98501.81
2023-03-07T08:21:18.339Z,98506.13
2023-03-07T08:23:45.298Z,98481.34
2023-03-07T08:26:13.493Z,98491.25
2023-03-07T08:28:41.687Z,98494.50
2023-03-07T08:31:15.912Z,98482.03
2023-03-07T08:33:43.173Z,98491.47
2023-03-07T08:36:10.241Z,98471.22
2023-03-07T08:38:37.035Z,98479.09
2023-03-07T08:41:05.811Z,98494.66
2023-03-07T08:43:34.053Z,98509.22
2023-03-07T08:46:00.913Z,98492.56
2023-03-07T08:48:27.745Z,98502.31
2023-03-07T08:50:55.367Z,98489.19
2023-03-07T08:53:22.901Z,98477.56
2023-03-07T08:55:50.072Z,98488.97
2023-03-07T08:58:16.797Z,98482.06
2023-03-07T09:00:43.574Z,98478.47
2023-03-07T09:03:10.368Z,98486.91
2023-03-07T09:05:38.963Z,98496.44
2023-03-07T09:08:09.289Z,98481.47
2023-03-07T09:10:37.049Z,98481.16
2023-03-07T09:13:03.810Z,98493.00
2023-03-07T09:15:30.743Z,98503.75
2023-03-07T09:17:57.478Z,98479.09
2023-03-07T09:20:24.948Z,98467.03
2023-03-07T09:22:53.718Z,98479.84
2023-03-07T09:25:20.467Z,98491.59
2023-03-07T09:27:47.374Z,98513.84
2023-03-07T09:30:14.928Z,98484.97
2023-03-07T09:32:42.198Z,98481.94
2023-03-07T09:35:10.429Z,98495.38
2023-03-07T09:37:38.139Z,98467.97
2023-03-07T09:40:09.554Z,98469.97
2023-03-07T09:42:45.903Z,98468.72
2023-03-07T09:45:21.249Z,98452.84
2023-03-07T09:48:07.999Z,98476.16
2023-03-07T09:50:45.551Z,98466.16
2023-03-07T09:53:45.070Z,98462.50
2023-03-07T09:56:25.317Z,98472.47
2023-03-07T09:59:21.920Z,98448.50
2023-03-07T10:02:06.129Z,98443.22
2023-03-07T10:04:43.756Z,98452.09
2023-03-07T10:07:12.960Z,98439.44
2023-03-07T10:09:39.759Z,98453.00
2023-03-07T10:12:25.662Z,98443.44
2023-03-07T10:18:42.729Z,98440.75
2023-03-07T10:21:18.168Z,98438.59
2023-03-07T10:24:06.769Z,98444.88
2023-03-07T10:26:35.913Z,98443.31
2023-03-07T10:29:14.183Z,98453.81
2023-03-07T10:31:43.173Z,98444.91
2023-03-07T10:34:26.408Z,98431.69
2023-03-07T10:37:08.402Z,98463.56
2023-03-07T10:39:53.714Z,98463.28
2023-03-07T10:42:22.976Z,98450.44
2023-03-07T10:44:51.223Z,98442.34
2023-03-07T10:47:21.167Z,98470.53
2023-03-07T10:49:49.328Z,98441.63
2023-03-07T10:52:33.071Z,98446.25
2023-03-07T10:55:44.648Z,98439.88
2023-03-07T10:58:16.103Z,98443.84
2023-03-07T11:00:44.604Z,98441.88
2023-03-07T11:03:52.841Z,98443.41
2023-03-07T11:06:28.544Z,98420.75
2023-03-07T11:08:56.293Z,98439.25
2023-03-07T11:11:32.205Z,98447.78
2023-03-07T11:14:10.630Z,98436.94
2023-03-07T11:16:43.558Z,98410.84
2023-03-07T11:19:33.437Z,98411.22
2023-03-07T11:22:03.729Z,98407.34
2023-03-07T11:24:38.385Z,98423.06
2023-03-07T11:27:05.757Z,98396.00
2023-03-07T11:29:33.841Z,98428.56
2023-03-07T11:32:06.546Z,98424.06
2023-03-07T11:34:53.999Z,98418.16
2023-03-07T11:37:43.670Z,98410.03
2023-03-07T11:40:34.085Z,98433.31
2023-03-07T11:43:21.583Z,98411.09
2023-03-07T11:45:51.287Z,98422.41
2023-03-07T11:48:33.915Z,98430.47
2023-03-07T11:51:03.081Z,98389.72
2023-03-07T11:53:30.310Z,98403.66
2023-03-07T11:56:31.042Z,98388.78
2023-03-07T11:59:09.932Z,98408.00
2023-03-07T12:01:47.697Z,98394.50
2023-03-07T12:04:36.520Z,98394.69
2023-03-07T12:07:44.987Z,98394.34
2023-03-07T12:10:38.961Z,98403.16
2023-03-07T12:13:24.375Z,98414.19
2023-03-07T12:16:03.127Z,98391.72
2023-03-07T12:18:58.181Z,98405.19
2023-03-07T12:21:34.598Z,98397.41
2023-03-07T12:24:11.356Z,98399.84
2023-03-07T12:26:50.736Z,98398.16
2023-03-07T12:29:35.749Z,98402.66
2023-03-07T12:32:35.419Z,98398.41
2023-03-07T12:35:08.567Z,98402.84
2023-03-07T12:37:41.821Z,98394.56
2023-03-07T12:40:42.490Z,98412.06
2023-03-07T12:43:34.211Z,98403.81
2023-03-07T12:46:23.690Z,98401.09
2023-03-07T12:49:02.055Z,98400.25
2023-03-07T12:51:37.457Z,98411.38
2023-03-07T12:54:10.653Z,98423.03
2023-03-07T12:57:19.429Z,98392.00
2023-03-07T12:59:46.344Z,98404.91
2023-03-07T13:02:24.769Z,98405.84
2023-03-07T13:04:51.532Z,98402.56
2023-03-07T13:07:20.355Z,98400.38
2023-03-07T13:09:48.730Z,98418.31
2023-03-07T13:12:25.508Z,98414.56
2023-03-07T13:14:53.526Z,98409.53
2023-03-07T13:17:33.364Z,98413.28
2023-03-07T13:20:11.459Z,98415.81
2023-03-07T13:22:38.160Z,98409.69
2023-03-07T13:25:20.489Z,98414.72
2023-03-07T13:27:55.802Z,98421.53
2023-03-07T13:30:32.617Z,98425.34
2023-03-07T13:33:00.395Z,98422.19
2023-03-07T13:35:39.376Z,98428.19
2023-03-07T13:38:15.586Z,98419.25
2023-03-07T13:40:46.755Z,98418.75
2023-03-07T13:43:19.377Z,98426.00
2023-03-07T13:45:46.771Z,98398.59
2023-03-07T13:48:19.623Z,98409.28
2023-03-07T13:50:46.306Z,98428.28
2023-03-07T13:53:20.134Z,98416.34
2023-03-07T13:56:16.202Z,98406.78
2023-03-07T13:58:52.428Z,98421.81
2023-03-07T14:01:25.455Z,98408.16
2023-03-07T14:03:58.765Z,98415.38
2023-03-07T14:06:36.663Z,98396.16
2023-03-07T14:09:05.694Z,98398.91
2023-03-07T14:11:44.610Z,98386.53
2023-03-07T14:14:19.147Z,98401.09
2023-03-07T14:16:51.530Z,98391.03
2023-03-07T14:19:55.541Z,98391.53
2023-03-07T14:22:32.283Z,98375.03
2023-03-07T14:25:21.336Z,98393.75
2023-03-07T14:27:56.875Z,98395.31
2023-03-07T14:30:26.097Z,98395.63
2023-03-07T14:32:52.877Z,98396.97
2023-03-07T14:35:43.110Z,98401.50
2023-03-07T14:38:20.954Z,98408.97
2023-03-07T14:41:16.720Z,98410.13
2023-03-07T14:43:55.866Z,98409.28
2023-03-07T14:46:35.706Z,98413.94
2023-03-07T14:49:33.823Z,98414.41
2023-03-07T14:52:02.585Z,98415.16
2023-03-07T14:54:32.253Z,98416.63
2023-03-07T14:57:00.747Z,98423.78
2023-03-07T14:59:29.435Z,98428.72
2023-03-07T15:01:57.783Z,98431.34
2023-03-07T15:04:30.119Z,98433.22
2023-03-07T15:07:02.172Z,98427.16
2023-03-07T15:09:29.697Z,98426.00
2023-03-07T15:12:29.204Z,98437.94
2023-03-07T15:14:58.754Z,98427.75
2023-03-07T15:17:32.874Z,98432.59
2023-03-07T15:20:17.224Z,98431.97
2023-03-07T15:22:46.841Z,98433.22
2023-03-07T15:25:23.971Z,98434.50
2023-03-07T15:28:04.484Z,98445.81
2023-03-07T15:30:34.183Z,98439.22
2023-03-07T15:33:23.245Z,98448.00
2023-03-07T15:36:16.283Z,98435.44
2023-03-07T15:38:48.501Z,98452.09
2023-03-07T15:41:25.400Z,98452.22
2023-03-07T15:44:10.610Z,98461.44
2023-03-07T15:46:43.497Z,98466.38
2023-03-07T15:49:23.068Z,98468.06
2023-03-07T15:51:53.092Z,98466.09
2023-03-07T15:54:27.202Z,98463.34
2023-03-07T15:56:56.883Z,98459.44
2023-03-07T15:59:38.748Z,98469.63
2023-03-07T16:02:30.601Z,98463.66
2023-03-07T16:04:59.944Z,98488.22
2023-03-07T16:07:26.771Z,98459.56
2023-03-07T16:09:53.530Z,98472.16
2023-03-07T16:12:22.758Z,98471.88
2023-03-07T16:14:51.150Z,98473.94
2023-03-07T16:17:20.463Z,98480.84
2023-03-07T16:19:47.322Z,98478.66
2023-03-07T16:22:18.505Z,98480.34
2023-03-07T16:24:45.415Z,98479.94
2023-03-07T16:27:20.221Z,98487.28
2023-03-07T16:29:47.496Z,98484.34
2023-03-07T16:32:16.792Z,98485.16
2023-03-07T16:34:44.517Z,98489.47
2023-03-07T16:37:11.515Z,98492.41
2023-03-07T16:39:38.221Z,98480.53
2023-03-07T16:42:06.827Z,98494.41
2023-03-07T16:44:38.183Z,98489.59
2023-03-07T16:47:23.132Z,98492.75
2023-03-07T16:49:51.073Z,98492.84
2023-03-07T16:52:17.763Z,98491.38
2023-03-07T16:54:44.583Z,98496.09
2023-03-07T16:57:16.260Z,98520.31
2023-03-07T16:59:47.193Z,98528.50
2023-03-07T17:02:16.934Z,98530.38
2023-03-07T17:04:44.728Z,98517.75
2023-03-07T17:07:16.852Z,98528.13
2023-03-07T17:09:43.638Z,98533.66
2023-03-07T17:12:10.728Z,98521.19
2023-03-07T17:14:37.535Z,98524.03
2023-03-07T17:17:04.656Z,98520.81
2023-03-07T17:19:32.919Z,98527.53
2023-03-07T17:22:01.287Z,98533.81
2023-03-07T17:24:29.388Z,98530.81
2023-03-07T17:26:57.955Z,98540.66
2023-03-07T17:29:40.164Z,98545.25
2023-03-07T17:32:07.263Z,98537.59
2023-03-07T17:34:35.021Z,98552.38
2023-03-07T17:37:02.024Z,98558.03
2023-03-07T17:39:30.362Z,98561.38
2023-03-07T17:41:58.226Z,98563.72
2023-03-07T17:44:25.301Z,98563.25
2023-03-07T17:46:52.578Z,98564.75
2023-03-07T17:49:20.334Z,98558.66
2023-03-07T17:51:48.839Z,98569.16
2023-03-07T17:54:16.296Z,98562.47
2023-03-07T17:56:43.193Z,98563.16
2023-03-07T17:59:10.312Z,98579.09
2023-03-07T18:01:37.633Z,98570.84
2023-03-07T18:04:06.507Z,98551.56
2023-03-07T18:06:34.204Z,98574.72
2023-03-07T18:09:01.609Z,98568.44
2023-03-07T18:11:31.020Z,98571.34
2023-03-07T18:13:58.071Z,98577.91
2023-03-07T18:16:25.466Z,98570.41
2023-03-07T18:18:59.336Z,98583.47
2023-03-07T18:21:29.837Z,98575.03
2023-03-07T18:23:57.140Z,98577.06
2023-03-07T18:26:24.085Z,98569.00
2023-03-07T18:28:53.313Z,98569.09
2023-03-07T18:31:25.306Z,98569.19
2023-03-07T18:33:53.241Z,98578.94
2023-03-07T18:36:21.634Z,98574.56
2023-03-07T18:38:48.657Z,98591.38
2023-03-07T18:41:17.556Z,98584.38
2023-03-07T18:43:45.043Z,98591.69
2023-03-07T18:46:14.296Z,98593.75
2023-03-07T18:48:41.229Z,98585.06
2023-03-07T18:51:10.985Z,98588.81
2023-03-07T18:53:38.476Z,98599.56
2023-03-07T18:56:10.760Z,98598.84
2023-03-07T18:58:37.887Z,98592.28
2023-03-07T19:01:16.290Z,98598.47
2023-03-07T19:03:44.213Z,98600.53
2023-03-07T19:06:12.405Z,98596.97
2023-03-07T19:08:39.789Z,98602.59
2023-03-07T19:11:11.003Z,98607.19
2023-03-07T19:13:40.628Z,98605.13
2023-03-07T19:16:12.830Z,98610.16
2023-03-07T19:18:40.224Z,98598.84
2023-03-07T19:21:14.539Z,98613.44
2023-03-07T19:23:41.524Z,98615.22
2023-03-07T19:26:10.784Z,98612.03
2023-03-07T19:28:37.576Z,98622.16
2023-03-07T19:31:09.369Z,98624.09
2023-03-07T19:33:36.887Z,98627.94
2023-03-07T19:36:06.225Z,98629.91
2023-03-07T19:38:36.405Z,98629.91
2023-03-07T19:41:04.068Z,98634.06
2023-03-07T19:43:30.889Z,98633.66
2023-03-07T19:46:01.249Z,98645.63
2023-03-07T19:48:28.005Z,98633.94
2023-03-07T19:50:54.756Z,98639.56
2023-03-07T19:53:21.564Z,98644.03
2023-03-07T19:55:51.023Z,98644.53
2023-03-07T19:58:17.754Z,98640.59
2023-03-07T20:00:46.579Z,98645.25
2023-03-07T20:03:14.658Z,98649.66
2023-03-07T20:05:43.163Z,98657.78
2023-03-07T20:08:10.519Z,98657.78
2023-03-07T20:10:41.095Z,98646.38
2023-03-07T20:13:07.989Z,98671.25
2023-03-07T20:15:35.572Z,98663.09
2023-03-07T20:18:06.087Z,98663.13
2023-03-07T20:20:36.130Z,98664.91
2023-03-07T20:23:02.869Z,98667.16
2023-03-07T20:25:30.137Z,98669.44
2023-03-07T20:27:57.201Z,98681.91
2023-03-07T20:30:23.956Z,98679.47
2023-03-07T20:32:51.095Z,98683.56
2023-03-07T20:35:18.096Z,98674.31
2023-03-07T20:37:44.766Z,98673.41
2023-03-07T20:40:12.390Z,98686.03
2023-03-07T20:42:39.074Z,98695.53
2023-03-07T20:45:06.658Z,98693.88
2023-03-07T20:47:36.432Z,98694.06
2023-03-07T20:50:03.743Z,98702.47
2023-03-07T20:52:30.613Z,98697.53
2023-03-07T20:54:57.344Z,98697.78
2023-03-07T20:57:24.121Z,98703.00
2023-03-07T20:59:51.031Z,98704.50
2023-03-07T21:02:17.692Z,98704.34
2023-03-07T21:04:44.369Z,98715.72
2023-03-07T21:07:11.074Z,98711.31
2023-03-07T21:09:37.780Z,98720.94
2023-03-07T21:12:05.553Z,98727.94
2023-03-07T21:14:32.416Z,98725.16
2023-03-07T21:16:59.261Z,98729.63
2023-03-07T21:19:26.100Z,98733.25
2023-03-07T21:21:52.762Z,98734.63
2023-03-07T21:24:19.475Z,98735.44
2023-03-07T21:26:47.278Z,98740.72
2023-03-07T21:29:14.227Z,98754.72
2023-03-07T21:31:41.255Z,98758.63
2023-03-07T21:34:12.307Z,98756.94
2023-03-07T21:36:39.441Z,98760.31
2023-03-07T21:39:08.128Z,98770.44
2023-03-07T21:41:35.022Z,98768.69
2023-03-07T21:44:02.253Z,98768.31
2023-03-07T21:46:29.030Z,98772.13
2023-03-07T21:48:59.339Z,98773.81
2023-03-07T21:51:26.391Z,98775.84
2023-03-07T21:53:53.070Z,98769.69
2023-03-07T21:56:20.291Z,98770.94
2023-03-07T21:58:49.457Z,98776.66
2023-03-07T22:01:25.924Z,98786.72
2023-03-07T22:03:58.085Z,98781.25
2023-03-07T22:06:27.159Z,98786.91
2023-03-07T22:08:54.214Z,98788.66
2023-03-07T22:11:22.503Z,98799.41
2023-03-07T22:13:49.351Z,98799.59
2023-03-07T22:16:18.320Z,98800.59
2023-03-07T22:18:45.018Z,98811.56
2023-03-07T22:21:14.384Z,98804.47
2023-03-07T22:23:42.235Z,98809.88
2023-03-07T22:26:10.729Z,98809.28
2023-03-07T22:28:38.050Z,98809.53
2023-03-07T22:31:06.865Z,98820.59
2023-03-07T22:33:34.134Z,98818.75
2023-03-07T22:36:03.445Z,98817.63
2023-03-07T22:38:30.567Z,98826.91
2023-03-07T22:41:01.974Z,98826.59
2023-03-07T22:43:31.578Z,98824.66
2023-03-07T22:45:58.387Z,98832.09
2023-03-07T22:48:25.713Z,98825.16
2023-03-07T22:50:54.508Z,98830.91
2023-03-07T22:53:21.553Z,98835.53
2023-03-07T22:55:48.503Z,98829.28
2023-03-07T22:58:15.406Z,98829.53
2023-03-07T23:00:43.982Z,98830.03
2023-03-07T23:03:11.214Z,98842.09
2023-03-07T23:05:38.042Z,98830.97
2023-03-07T23:08:05.184Z,98843.28
2023-03-07T23:10:32.470Z,98843.94
2023-03-07T23:12:59.598Z,98840.75
2023-03-07T23:15:26.489Z,98844.88
2023-03-07T23:17:53.548Z,98857.75
2023-03-07T23:20:20.373Z,98845.09
2023-03-07T23:22:49.874Z,98846.25
2023-03-07T23:25:16.555Z,98845.44
2023-03-07T23:27:43.274Z,98848.34
2023-03-07T23:30:10.673Z,98859.59
2023-03-07T23:32:37.505Z,98864.28
2023-03-07T23:35:04.573Z,98863.22
2023-03-07T23:37:32.065Z,98853.94
2023-03-07T23:40:00.896Z,98867.56
2023-03-07T23:42:27.724Z,98869.19
2023-03-07T23:44:55.267Z,98868.06
2023-03-07T23:47:22.239Z,98878.41
2023-03-07T23:49:49.125Z,98874.75
2023-03-07T23:52:15.947Z,98873.75
2023-03-07T23:54:45.341Z,98878.81
2023-03-07T23:57:12.536Z,98879.19
2023-03-07T23:59:39.369Z,98882.72
